^^
B2 Weather Station Historical Data
Daily Summary for December 8, 2018 Units:  English    Metric   Both
Daily Weekly Monthly Yearly Custom
  High: Low: Average:
Temperature: 27.1 °F 15.6 °F 20.9 °F
Dew Point: 20.8 °F 11.9 °F 16.5 °F
Humidity: 90% 75% 83%
Wind Speed: 8mph 0mph 2.6mph
Wind Gust: 6.4mph - -
Wind- - SSE
Pressure: 30.69 in 30.50 in -
Precipitation: 0 in    
Historical Graphs
 
 
Tabular Data for December 8, 2018
Time Temperature Dew Point Pressure Wind Wind Speed Wind Gust Humidity Rainfall Rate (Hourly) solar
00:04 18.5 °F 13.1 °F 30.62 in West 1.2 mph 0.8 mph 79% 0 in 0.00 W/m2
00:09 18.5 °F 13.1 °F 30.62 in Calm     79% 0 in 0.00 W/m2
00:14 18.4 °F 13 °F 30.62 in West 3.5 mph 1.3 mph 79% 0 in 0.00 W/m2
00:19 18.5 °F 13.1 °F 30.62 in West 1.2 mph   79% 0 in 0.00 W/m2
00:24 18.4 °F 13 °F 30.61 in West 2.3 mph 0.5 mph 79% 0 in 0.00 W/m2
00:29 18.3 °F 12.9 °F 30.62 in West 1.2 mph 0.4 mph 79% 0 in 0.00 W/m2
00:34 18.2 °F 12.8 °F 30.62 in North 1.2 mph 0.5 mph 79% 0 in 0.00 W/m2
00:39 18.2 °F 12.8 °F 30.62 in West 1.2 mph 0.2 mph 79% 0 in 0.00 W/m2
00:44 18.1 °F 12.7 °F 30.62 in West 2.3 mph 0.4 mph 79% 0 in 0.00 W/m2
00:49 18 °F 12.6 °F 30.63 in West 2.3 mph 0.9 mph 79% 0 in 0.00 W/m2
00:54 18 °F 12.9 °F 30.63 in West 2.3 mph 0.8 mph 80% 0 in 0.00 W/m2
00:59 18 °F 12.9 °F 30.63 in WNW 1.2 mph   80% 0 in 0.00 W/m2
01:04 18 °F 12.9 °F 30.63 in West 2.3 mph 0.4 mph 80% 0 in 0.00 W/m2
01:09 18 °F 12.9 °F 30.63 in WNW 1.2 mph 0.4 mph 80% 0 in 0.00 W/m2
01:14 18 °F 12.9 °F 30.63 in North 3.5 mph 1.7 mph 80% 0 in 0.00 W/m2
01:19 18 °F 12.9 °F 30.63 in WNW 1.2 mph 0.8 mph 80% 0 in 0.00 W/m2
01:24 18 °F 12.9 °F 30.63 in WNW 3.5 mph 0.8 mph 80% 0 in 0.00 W/m2
01:29 17.9 °F 12.8 °F 30.63 in WNW 2.3 mph 0.9 mph 80% 0 in 0.00 W/m2
01:34 17.9 °F 12.8 °F 30.64 in North 3.5 mph 1 mph 80% 0 in 0.00 W/m2
01:39 17.8 °F 12.7 °F 30.64 in NW 2.3 mph 1.6 mph 80% 0 in 0.00 W/m2
01:44 17.7 °F 12.6 °F 30.64 in WNW 3.5 mph 2.4 mph 80% 0 in 0.00 W/m2
01:49 17.7 °F 12.9 °F 30.64 in NW 2.3 mph 1 mph 81% 0 in 0.00 W/m2
01:54 17.6 °F 12.8 °F 30.64 in WNW 3.5 mph 1.4 mph 81% 0 in 0.00 W/m2
01:59 17.5 °F 12.7 °F 30.65 in WNW 2.3 mph 0.4 mph 81% 0 in 0.00 W/m2
02:04 17.5 °F 12.7 °F 30.65 in NW 2.3 mph 1 mph 81% 0 in 0.00 W/m2
02:09 17.4 °F 12.6 °F 30.65 in NW 3.5 mph 0.7 mph 81% 0 in 0.00 W/m2
02:14 17.3 °F 12.7 °F 30.65 in WNW 2.3 mph 0.9 mph 82% 0 in 0.00 W/m2
02:19 17.3 °F 12.5 °F 30.65 in North 2.3 mph 1.5 mph 81% 0 in 0.00 W/m2
02:24 17.3 °F 12.7 °F 30.64 in WNW 2.3 mph 0.3 mph 82% 0 in 0.00 W/m2
02:29 17.2 °F 12.6 °F 30.64 in WNW 2.3 mph 0.8 mph 82% 0 in 0.00 W/m2
02:34 17.1 °F 12.6 °F 30.64 in WNW 2 mph 1 mph 82% 0 in 0.00 W/m2
02:39 17.1 °F 12.6 °F 30.64 in WNW 2.3 mph 0.5 mph 82% 0 in 0.00 W/m2
02:44 17 °F 12.5 °F 30.64 in NW 2.3 mph   82% 0 in 0.00 W/m2
02:49 17 °F 12.7 °F 30.65 in NW 3.5 mph 1.1 mph 83% 0 in 0.00 W/m2
02:54 17.1 °F 12.8 °F 30.64 in Calm     83% 0 in 0.00 W/m2
02:59 17.1 °F 12.8 °F 30.64 in NW 2.3 mph 0.2 mph 83% 0 in 0.00 W/m2
03:04 17 °F 12.7 °F 30.64 in NW 2.3 mph 1.9 mph 83% 0 in 0.00 W/m2
03:09 17 °F 12.7 °F 30.64 in Calm     83% 0 in 0.00 W/m2
03:14 17 °F 12.7 °F 30.64 in Calm     83% 0 in 0.00 W/m2
03:19 16.9 °F 12.6 °F 30.64 in Calm     83% 0 in 0.00 W/m2
03:24 16.8 °F 12.5 °F 30.64 in NW 2.3 mph 0.3 mph 83% 0 in 0.00 W/m2
03:29 16.8 °F 12.5 °F 30.63 in Calm     83% 0 in 0.00 W/m2
03:34 16.8 °F 12.5 °F 30.64 in Calm     83% 0 in 0.00 W/m2
03:39 16.8 °F 12.5 °F 30.63 in NW 3.5 mph 1.2 mph 83% 0 in 0.00 W/m2
03:44 16.7 °F 12.4 °F 30.63 in NW 2.3 mph 0.9 mph 83% 0 in 0.00 W/m2
03:49 16.8 °F 12.8 °F 30.64 in NW 2.3 mph 1.5 mph 84% 0 in 0.00 W/m2
03:54 16.8 °F 12.8 °F 30.64 in NW 1.2 mph 0.4 mph 84% 0 in 0.00 W/m2
03:59 16.7 °F 12.7 °F 30.64 in North 2.3 mph 1.9 mph 84% 0 in 0.00 W/m2
04:04 16.7 °F 12.7 °F 30.64 in NNW 2.3 mph 0.3 mph 84% 0 in 0.00 W/m2
04:09 16.7 °F 12.7 °F 30.64 in NNW 2.3 mph 0.7 mph 84% 0 in 0.00 W/m2
04:14 16.6 °F 12.6 °F 30.64 in NNW 3.5 mph 1.4 mph 84% 0 in 0.00 W/m2
04:19 16.5 °F 12.5 °F 30.63 in NNW 3.5 mph 2.3 mph 84% 0 in 0.00 W/m2
04:24 16.4 °F 12.4 °F 30.63 in NNW 3.5 mph 0.9 mph 84% 0 in 0.00 W/m2
04:29 16.3 °F 12.6 °F 30.63 in NNW 3.5 mph 1.6 mph 85% 0 in 0.00 W/m2
04:34 16.2 °F 12.5 °F 30.63 in NNW 2.3 mph 0.1 mph 85% 0 in 0.00 W/m2
04:39 16.1 °F 12.4 °F 30.63 in NNW 2.3 mph 1.7 mph 85% 0 in 0.00 W/m2
04:44 16.1 °F 12.4 °F 30.63 in NNW 3.5 mph 1.1 mph 85% 0 in 0.00 W/m2
04:49 16.1 °F 12.4 °F 30.62 in NNW 2.3 mph 0.7 mph 85% 0 in 0.00 W/m2
04:54 16.2 °F 12.5 °F 30.62 in NNW 3.5 mph 2.1 mph 85% 0 in 0.00 W/m2
04:59 16.1 °F 12.4 °F 30.63 in NNW 3 mph 2.2 mph 85% 0 in 0.00 W/m2
05:04 16.1 °F 12.4 °F 30.63 in NNW 3.5 mph 1.3 mph 85% 0 in 0.00 W/m2
05:09 16.1 °F 12.7 °F 30.63 in NNW 2.3 mph 0.1 mph 86% 0 in 0.00 W/m2
05:14 16.2 °F 12.5 °F 30.63 in NNW 3.5 mph 1 mph 85% 0 in 0.00 W/m2
05:19 16.2 °F 12.7 °F 30.63 in NNW 3 mph 1.4 mph 86% 0 in 0.00 W/m2
05:24 16.1 °F 12.4 °F 30.63 in NNW 3.5 mph 2 mph 85% 0 in 0.00 W/m2
05:29 16.2 °F 12.7 °F 30.63 in NNW 2.3 mph 0.4 mph 86% 0 in 0.00 W/m2
05:34 16.3 °F 12.8 °F 30.63 in NW 2.3 mph 0.9 mph 86% 0 in 0.00 W/m2
05:39 16.3 °F 12.8 °F 30.64 in NW 2.3 mph 0.7 mph 86% 0 in 0.00 W/m2
05:44 16.4 °F 12.7 °F 30.63 in NW 1.2 mph 0.3 mph 85% 0 in 0.00 W/m2
05:49 16.4 °F 12.7 °F 30.64 in NW 1 mph 0.2 mph 85% 0 in 0.00 W/m2
05:54 16.4 °F 12.7 °F 30.64 in NW 2.3 mph 1.1 mph 85% 0 in 0.00 W/m2
05:59 16.5 °F 12.8 °F 30.65 in NW 2 mph 1.4 mph 85% 0 in 0.00 W/m2
06:04 16.7 °F 13.2 °F 30.65 in NW 3.5 mph 1.1 mph 86% 0 in 0.00 W/m2
06:09 16.8 °F 13.1 °F 30.65 in NW 2.3 mph 0.7 mph 85% 0 in 0.00 W/m2
06:14 16.9 °F 13.2 °F 30.65 in NW 2.3 mph 0.6 mph 85% 0 in 0.00 W/m2
06:19 17 °F 13.3 °F 30.66 in NW 2.3 mph 0.6 mph 85% 0 in 0.00 W/m2
06:24 17.1 °F 13.4 °F 30.66 in NW 2.3 mph 0.4 mph 85% 0 in 0.00 W/m2
06:29 17.2 °F 13.5 °F 30.66 in NW 2.3 mph 0.3 mph 85% 0 in 0.00 W/m2
06:34 17.2 °F 13.5 °F 30.66 in NW 3.5 mph 1.2 mph 85% 0 in 0.00 W/m2
06:39 17.3 °F 13.6 °F 30.66 in NNW 2.3 mph 2.1 mph 85% 0 in 0.00 W/m2
06:44 17.2 °F 13.5 °F 30.66 in NNW 3.5 mph 1.5 mph 85% 0 in 0.00 W/m2
06:49 17 °F 13 °F 30.66 in NNW 3.5 mph 1.5 mph 84% 0 in 0.00 W/m2
06:54 16.7 °F 12.7 °F 30.66 in NNW 3.5 mph 1.5 mph 84% 0 in 0.00 W/m2
06:59 16.4 °F 12.7 °F 30.66 in NNW 3.5 mph 1.3 mph 85% 0 in 0.00 W/m2
07:04 15.9 °F 11.9 °F 30.66 in NNW 3.5 mph 1.6 mph 84% 0 in 0.00 W/m2
07:09 15.8 °F 12.1 °F 30.66 in Calm   0.3 mph 85% 0 in 0.00 W/m2
07:14 15.7 °F 12.3 °F 30.66 in NNW 1.2 mph 0.1 mph 86% 0 in 5.00 W/m2
07:19 15.8 °F 12.4 °F 30.66 in Calm     86% 0 in 9.00 W/m2
07:24 16.1 °F 12.7 °F 30.66 in Calm     86% 0 in 11.00 W/m2
07:29 16.4 °F 13.2 °F 30.66 in Calm     87% 0 in 14.00 W/m2
07:34 16.6 °F 13.4 °F 30.66 in Calm   0.1 mph 87% 0 in 19.00 W/m2
07:39 16.9 °F 13.7 °F 30.66 in NNW 2.3 mph 0.1 mph 87% 0 in 23.00 W/m2
07:44 17.2 °F 14 °F 30.66 in Calm     87% 0 in 28.00 W/m2
07:49 17.6 °F 14.4 °F 30.66 in NNW 2.3 mph 1.8 mph 87% 0 in 37.00 W/m2
07:54 17.8 °F 14.6 °F 30.66 in NNW 2.3 mph 0.8 mph 87% 0 in 40.00 W/m2
07:59 17.9 °F 14.7 °F 30.66 in NNW 2.3 mph 1.2 mph 87% 0 in 46.00 W/m2
08:04 18.1 °F 15.1 °F 30.66 in NNW 2.3 mph 0.6 mph 88% 0 in 54.00 W/m2
08:09 18.4 °F 15.4 °F 30.66 in NNW 3.5 mph 2.1 mph 88% 0 in 53.00 W/m2
08:14 18.7 °F 15.7 °F 30.66 in North 2.3 mph 1.9 mph 88% 0 in 56.00 W/m2
08:19 18.9 °F 15.9 °F 30.66 in North 3.5 mph 1.7 mph 88% 0 in 65.00 W/m2
08:24 19.3 °F 16.3 °F 30.66 in North 2.3 mph 0.1 mph 88% 0 in 72.00 W/m2
08:29 19.6 °F 16.6 °F 30.67 in North 2.3 mph 1.7 mph 88% 0 in 88.00 W/m2
08:34 20 °F 17 °F 30.67 in North 2.3 mph 1.1 mph 88% 0 in 72.00 W/m2
08:39 20.3 °F 17.3 °F 30.67 in North 2.3 mph 0.6 mph 88% 0 in 65.00 W/m2
08:44 20.6 °F 17.6 °F 30.67 in North 3.5 mph 1.6 mph 88% 0 in 72.00 W/m2
08:49 21 °F 18 °F 30.67 in North 3.5 mph 0.1 mph 88% 0 in 83.00 W/m2
08:54 21.3 °F 18.3 °F 30.67 in NNE 2 mph 1.6 mph 88% 0 in 95.00 W/m2
08:59 21.9 °F 18.9 °F 30.67 in NE 3.5 mph 0.8 mph 88% 0 in 113.00 W/m2
09:04 22.4 °F 19.4 °F 30.68 in NE 2.3 mph 1.4 mph 88% 0 in 91.00 W/m2
09:09 22.8 °F 19.8 °F 30.68 in NE 3.5 mph 1.2 mph 88% 0 in 127.00 W/m2
09:14 23.2 °F 19.9 °F 30.68 in NE 2.3 mph 1.1 mph 87% 0 in 158.00 W/m2
09:19 23.5 °F 19.9 °F 30.68 in NE 2.3 mph 2.4 mph 86% 0 in 243.00 W/m2
09:24 24 °F 20.1 °F 30.68 in NNE 3.5 mph 0.8 mph 85% 0 in 225.00 W/m2
09:29 24.4 °F 20.3 °F 30.68 in NE 2.3 mph 1.2 mph 84% 0 in 236.00 W/m2
09:34 24.7 °F 20.3 °F 30.68 in NE 1.2 mph   83% 0 in 162.00 W/m2
09:39 24.9 °F 20.2 °F 30.68 in NE 2.3 mph   82% 0 in 185.00 W/m2
09:44 25.1 °F 20.1 °F 30.68 in NE 2.3 mph 0.8 mph 81% 0 in 199.00 W/m2
09:49 25.1 °F 20.1 °F 30.68 in NE 3.5 mph 0.6 mph 81% 0 in 200.00 W/m2
09:54 25.2 °F 19.9 °F 30.68 in ENE 3.5 mph 1.4 mph 80% 0 in 171.00 W/m2
09:59 25.3 °F 20 °F 30.68 in East 3 mph 2.2 mph 80% 0 in 174.00 W/m2
10:04 25.3 °F 20 °F 30.68 in ENE 3.5 mph 2.6 mph 80% 0 in 169.00 W/m2
10:09 25.3 °F 20 °F 30.69 in East 3.5 mph 2.2 mph 80% 0 in 149.00 W/m2
10:14 25.4 °F 20.1 °F 30.69 in SSE 5 mph 2.8 mph 80% 0 in 125.00 W/m2
10:19 25.2 °F 19.6 °F 30.69 in SSE 3.5 mph 2.1 mph 79% 0 in 130.00 W/m2
10:24 25.2 °F 19.9 °F 30.69 in ESE 4 mph 4 mph 80% 0 in 114.00 W/m2
10:29 25.2 °F 19.6 °F 30.69 in ESE 3.5 mph 2 mph 79% 0 in 105.00 W/m2
10:34 25.1 °F 19.5 °F 30.69 in East 4.6 mph 1.6 mph 79% 0 in 98.00 W/m2
10:39 25.1 °F 19.5 °F 30.69 in ENE 3.5 mph 1.4 mph 79% 0 in 91.00 W/m2
10:44 25.1 °F 19.2 °F 30.69 in East 3.5 mph 2 mph 78% 0 in 69.00 W/m2
10:49 24.9 °F 19 °F 30.69 in SE 4.6 mph 4 mph 78% 0 in 69.00 W/m2
10:54 24.8 °F 19.2 °F 30.69 in SE 5 mph 3.4 mph 79% 0 in 74.00 W/m2
10:59 24.8 °F 19.5 °F 30.69 in SE 4.6 mph 2.7 mph 80% 0 in 98.00 W/m2
11:04 24.9 °F 19.6 °F 30.69 in SE 3.5 mph 2.4 mph 80% 0 in 127.00 W/m2
11:09 25 °F 19.4 °F 30.68 in SSE 1.2 mph   79% 0 in 144.00 W/m2
11:14 25.2 °F 19.6 °F 30.68 in SSE 3.5 mph 3.1 mph 79% 0 in 142.00 W/m2
11:19 25.3 °F 20 °F 30.68 in SSE 3.5 mph 2.3 mph 80% 0 in 139.00 W/m2
11:24 25.4 °F 19.8 °F 30.67 in SSE 3.5 mph 1 mph 79% 0 in 134.00 W/m2
11:29 25.4 °F 19.8 °F 30.67 in SSE 1.2 mph   79% 0 in 132.00 W/m2
11:34 25.6 °F 20 °F 30.67 in SSE 3.5 mph 0.8 mph 79% 0 in 113.00 W/m2
11:39 25.6 °F 20 °F 30.66 in SSW 2 mph 1.1 mph 79% 0 in 123.00 W/m2
11:44 25.7 °F 20.1 °F 30.66 in SSW 3.5 mph 0.9 mph 79% 0 in 132.00 W/m2
11:50 25.9 °F 20.3 °F 30.66 in SSE 3.5 mph 2.4 mph 79% 0 in 132.00 W/m2
11:54 26 °F 20.4 °F 30.65 in SSE 2.3 mph 1.4 mph 79% 0 in 137.00 W/m2
11:59 26 °F 20.1 °F 30.65 in SSW 3.5 mph 1.2 mph 78% 0 in 144.00 W/m2
12:04 26.1 °F 20.2 °F 30.65 in South 3 mph 2.2 mph 78% 0 in 144.00 W/m2
12:09 26.1 °F 20.2 °F 30.65 in SSW 3.5 mph 0.7 mph 78% 0 in 149.00 W/m2
12:14 26.2 °F 20.3 °F 30.64 in SSW 1.2 mph 0.4 mph 78% 0 in 160.00 W/m2
12:19 26.2 °F 20.3 °F 30.64 in South 3 mph 1.7 mph 78% 0 in 167.00 W/m2
12:24 26.1 °F 20.2 °F 30.64 in SSW 3.5 mph 1.6 mph 78% 0 in 155.00 W/m2
12:29 26.2 °F 20.3 °F 30.64 in SSW 1.2 mph   78% 0 in 146.00 W/m2
12:34 26.5 °F 20.6 °F 30.64 in SSE 4.6 mph 2.6 mph 78% 0 in 134.00 W/m2
12:40 26.4 °F 20.2 °F 30.64 in Calm     77% 0 in 134.00 W/m2
12:45 26.5 °F 20.6 °F 30.64 in SSE 3.5 mph 1.3 mph 78% 0 in 135.00 W/m2
12:49 26.6 °F 20.4 °F 30.64 in SSE 1.2 mph   77% 0 in 134.00 W/m2
12:54 26.7 °F 20.1 °F 30.64 in Calm     76% 0 in 123.00 W/m2
12:59 26.8 °F 20.6 °F 30.63 in SE 2.3 mph 0.6 mph 77% 0 in 125.00 W/m2
13:05 26.8 °F 20.2 °F 30.63 in ESE 3.5 mph 1.7 mph 76% 0 in 128.00 W/m2
13:09 26.8 °F 20.2 °F 30.63 in ESE 1.2 mph   76% 0 in 132.00 W/m2
13:14 27 °F 20.4 °F 30.63 in Calm     76% 0 in 121.00 W/m2
13:19 27.1 °F 20.2 °F 30.62 in SSE 3.5 mph 1.6 mph 75% 0 in 118.00 W/m2
13:24 26.9 °F 20.3 °F 30.62 in ESE 3.5 mph 2.6 mph 76% 0 in 121.00 W/m2
13:29 26.9 °F 20.3 °F 30.62 in ESE 1.2 mph 0.4 mph 76% 0 in 123.00 W/m2
13:34 26.8 °F 20.2 °F 30.62 in ESE 3.5 mph 2.7 mph 76% 0 in 111.00 W/m2
13:39 26.7 °F 19.8 °F 30.61 in ESE 1.2 mph   75% 0 in 107.00 W/m2
13:45 26.9 °F 20.3 °F 30.62 in Calm     76% 0 in 105.00 W/m2
13:49 27 °F 20.4 °F 30.62 in East 2.3 mph 2.2 mph 76% 0 in 102.00 W/m2
13:54 26.9 °F 20 °F 30.62 in East 2.3 mph 0.9 mph 75% 0 in 100.00 W/m2
13:59 26.7 °F 19.8 °F 30.62 in SE 4 mph 2.7 mph 75% 0 in 95.00 W/m2
14:04 26.8 °F 20.2 °F 30.62 in ENE 8 mph 6.4 mph 76% 0 in 90.00 W/m2
14:09 26.6 °F 20.1 °F 30.61 in East 5.8 mph 4.1 mph 76% 0 in 98.00 W/m2
14:14 26.5 °F 20 °F 30.61 in East 5 mph 3.8 mph 76% 0 in 107.00 W/m2
14:19 26.7 °F 20.1 °F 30.61 in East 4.6 mph 2 mph 76% 0 in 100.00 W/m2
14:24 26.8 °F 20.6 °F 30.61 in ESE 4.6 mph 3.3 mph 77% 0 in 97.00 W/m2
14:29 26.7 °F 20.1 °F 30.61 in ESE 3.5 mph 2.2 mph 76% 0 in 86.00 W/m2
14:34 26.7 °F 20.1 °F 30.61 in ENE 4.6 mph 2.6 mph 76% 0 in 84.00 W/m2
14:39 26.8 °F 20.6 °F 30.61 in ESE 5 mph 5.3 mph 77% 0 in 81.00 W/m2
14:44 26.7 °F 20.1 °F 30.60 in ENE 6 mph 4.3 mph 76% 0 in 83.00 W/m2
14:49 26.7 °F 20.5 °F 30.60 in ESE 3.5 mph 1.9 mph 77% 0 in 86.00 W/m2
14:54 26.7 °F 20.1 °F 30.60 in ESE 4.6 mph 4.3 mph 76% 0 in 84.00 W/m2
14:59 26.6 °F 20.4 °F 30.59 in ESE 5.8 mph 4.2 mph 77% 0 in 88.00 W/m2
15:04 26.6 °F 20.4 °F 30.59 in East 4.6 mph 4.5 mph 77% 0 in 81.00 W/m2
15:09 26.6 °F 20.7 °F 30.59 in ENE 5.8 mph 4.8 mph 78% 0 in 72.00 W/m2
15:14 26.7 °F 20.8 °F 30.59 in ENE 6.9 mph 4.6 mph 78% 0 in 69.00 W/m2
15:19 26.6 °F 20.7 °F 30.59 in ENE 7 mph 6.2 mph 78% 0 in 54.00 W/m2
15:24 26.4 °F 20.5 °F 30.59 in ENE 6.9 mph 4.8 mph 78% 0 in 51.00 W/m2
15:29 26.4 °F 20.5 °F 30.59 in NE 6.9 mph 3.5 mph 78% 0 in 46.00 W/m2
15:34 26.4 °F 20.8 °F 30.59 in ENE 6.9 mph 3.4 mph 79% 0 in 39.00 W/m2
15:39 26.4 °F 20.8 °F 30.59 in East 6 mph 4 mph 79% 0 in 39.00 W/m2
15:44 26.3 °F 20.7 °F 30.59 in ENE 4.6 mph 3.3 mph 79% 0 in 30.00 W/m2
15:49 26.2 °F 20.6 °F 30.58 in NE 7 mph 4.7 mph 79% 0 in 25.00 W/m2
15:54 26.1 °F 20.5 °F 30.58 in NE 3.5 mph 2.4 mph 79% 0 in 18.00 W/m2
15:59 26 °F 20.4 °F 30.59 in NE 5.8 mph 4.2 mph 79% 0 in 14.00 W/m2
16:04 25.8 °F 20.2 °F 30.58 in NNE 5.8 mph 3.7 mph 79% 0 in 12.00 W/m2
16:09 25.6 °F 20 °F 30.58 in ENE 7 mph 3.3 mph 79% 0 in 7.00 W/m2
16:14 25.5 °F 19.9 °F 30.58 in ENE 5 mph 5 mph 79% 0 in 7.00 W/m2
16:19 25.2 °F 19.6 °F 30.58 in ENE 7 mph 4 mph 79% 0 in 0.00 W/m2
16:24 25 °F 19.7 °F 30.58 in ENE 3.5 mph 2.8 mph 80% 0 in 0.00 W/m2
16:29 24.8 °F 19.5 °F 30.59 in ENE 4.6 mph 3.2 mph 80% 0 in 0.00 W/m2
16:34 24.7 °F 19.7 °F 30.59 in ENE 3.5 mph 2 mph 81% 0 in 0.00 W/m2
16:39 24.7 °F 19.7 °F 30.58 in ENE 3.5 mph 0.8 mph 81% 0 in 0.00 W/m2
16:44 24.6 °F 19.9 °F 30.59 in ENE 1.2 mph 0.6 mph 82% 0 in 0.00 W/m2
16:49 24.5 °F 19.8 °F 30.59 in ENE 4 mph 2.2 mph 82% 0 in 0.00 W/m2
16:54 24.4 °F 19.7 °F 30.59 in ENE 3.5 mph 1.2 mph 82% 0 in 0.00 W/m2
16:59 24.4 °F 19.7 °F 30.59 in ENE 3.5 mph 2 mph 82% 0 in 0.00 W/m2
17:04 24.3 °F 19.6 °F 30.58 in ENE 4.6 mph 2.7 mph 82% 0 in 0.00 W/m2
17:09 24.1 °F 19.4 °F 30.58 in ENE 3.5 mph 2.4 mph 82% 0 in 0.00 W/m2
17:14 23.9 °F 19.2 °F 30.58 in ENE 3.5 mph 3.2 mph 82% 0 in 0.00 W/m2
17:19 23.7 °F 19.3 °F 30.58 in ENE 3.5 mph 2.7 mph 83% 0 in 0.00 W/m2
17:24 23.6 °F 19.2 °F 30.58 in ENE 2.3 mph 1.8 mph 83% 0 in 0.00 W/m2
17:29 23.5 °F 19.4 °F 30.58 in ENE 1.2 mph 0.7 mph 84% 0 in 0.00 W/m2
17:34 23.4 °F 19.3 °F 30.58 in Calm     84% 0 in 0.00 W/m2
17:39 23.4 °F 19.3 °F 30.58 in Calm     84% 0 in 0.00 W/m2
17:44 23.3 °F 19.2 °F 30.57 in Calm     84% 0 in 0.00 W/m2
17:49 23.2 °F 19.1 °F 30.57 in ENE 3.5 mph 1.7 mph 84% 0 in 0.00 W/m2
17:54 22.9 °F 18.8 °F 30.57 in Calm     84% 0 in 0.00 W/m2
17:59 22.7 °F 18.6 °F 30.57 in ENE 2.3 mph 1.2 mph 84% 0 in 0.00 W/m2
18:04 22.6 °F 18.8 °F 30.57 in ENE 2.3 mph   85% 0 in 0.00 W/m2
18:09 22.5 °F 18.4 °F 30.57 in Calm     84% 0 in 0.00 W/m2
18:14 22.3 °F 18.5 °F 30.57 in Calm     85% 0 in 0.00 W/m2
18:19 22.1 °F 18.3 °F 30.57 in ENE 3.5 mph 2.6 mph 85% 0 in 0.00 W/m2
18:24 22.1 °F 18.3 °F 30.57 in ENE 2.3 mph 1 mph 85% 0 in 0.00 W/m2
18:29 22.2 °F 18.4 °F 30.57 in ENE 2.3 mph 0.9 mph 85% 0 in 0.00 W/m2
18:34 22.1 °F 18.6 °F 30.57 in Calm     86% 0 in 0.00 W/m2
18:39 22.1 °F 18.3 °F 30.57 in ENE 2.3 mph 0.9 mph 85% 0 in 0.00 W/m2
18:44 22.1 °F 18.6 °F 30.58 in Calm     86% 0 in 0.00 W/m2
18:49 22.2 °F 18.7 °F 30.58 in Calm     86% 0 in 0.00 W/m2
18:54 22.3 °F 18.7 °F 30.58 in Calm     86% 0 in 0.00 W/m2
18:59 22.5 °F 18.9 °F 30.58 in Calm     86% 0 in 0.00 W/m2
19:04 22.7 °F 19.1 °F 30.58 in Calm     86% 0 in 0.00 W/m2
19:09 22.9 °F 19.3 °F 30.58 in Calm     86% 0 in 0.00 W/m2
19:14 23 °F 19.4 °F 30.58 in ENE 1 mph 0.4 mph 86% 0 in 0.00 W/m2
19:19 23.2 °F 19.6 °F 30.59 in ENE 2.3 mph 1.6 mph 86% 0 in 0.00 W/m2
19:24 23.2 °F 19.6 °F 30.59 in ENE 1.2 mph 0.2 mph 86% 0 in 0.00 W/m2
19:29 23.3 °F 19.7 °F 30.58 in ENE 1 mph 0.8 mph 86% 0 in 0.00 W/m2
19:34 23.2 °F 19.6 °F 30.58 in ENE 2.3 mph 0.4 mph 86% 0 in 0.00 W/m2
19:39 23.1 °F 19.3 °F 30.58 in Calm     85% 0 in 0.00 W/m2
19:44 22.9 °F 19.1 °F 30.58 in Calm     85% 0 in 0.00 W/m2
19:49 22.7 °F 18.9 °F 30.57 in Calm     85% 0 in 0.00 W/m2
19:54 22.5 °F 18.7 °F 30.57 in Calm     85% 0 in 0.00 W/m2
19:59 22.2 °F 18.1 °F 30.57 in Calm     84% 0 in 0.00 W/m2
20:04 21.8 °F 17.7 °F 30.57 in ENE 1.2 mph   84% 0 in 0.00 W/m2
20:09 21.4 °F 17.3 °F 30.57 in Calm     84% 0 in 0.00 W/m2
20:14 21 °F 17.2 °F 30.57 in ENE 2 mph 0.4 mph 85% 0 in 0.00 W/m2
20:19 20.7 °F 16.9 °F 30.57 in Calm     85% 0 in 0.00 W/m2
20:24 20.4 °F 16.6 °F 30.57 in ENE 2.3 mph 0.5 mph 85% 0 in 0.00 W/m2
20:29 20.2 °F 16.7 °F 30.57 in Calm     86% 0 in 0.00 W/m2
20:34 20 °F 16.5 °F 30.56 in Calm     86% 0 in 0.00 W/m2
20:39 19.9 °F 16.4 °F 30.56 in Calm     86% 0 in 0.00 W/m2
20:44 19.7 °F 16.2 °F 30.56 in Calm     86% 0 in 0.00 W/m2
20:49 19.5 °F 16 °F 30.56 in Calm     86% 0 in 0.00 W/m2
20:54 19.4 °F 16.2 °F 30.56 in Calm     87% 0 in 0.00 W/m2
20:59 19.4 °F 16.2 °F 30.56 in Calm     87% 0 in 0.00 W/m2
21:04 19.2 °F 16 °F 30.55 in ENE 2.3 mph 1.3 mph 87% 0 in 0.00 W/m2
21:09 19 °F 15.8 °F 30.55 in ENE 3.5 mph 1.9 mph 87% 0 in 0.00 W/m2
21:14 18.9 °F 15.7 °F 30.55 in ENE 3.5 mph 1.9 mph 87% 0 in 0.00 W/m2
21:19 18.8 °F 15.8 °F 30.55 in ENE 3.5 mph 2.1 mph 88% 0 in 0.00 W/m2
21:24 18.5 °F 15.3 °F 30.55 in ENE 3.5 mph 2.1 mph 87% 0 in 0.00 W/m2
21:29 18.2 °F 15.2 °F 30.55 in NNE 3.5 mph 2.6 mph 88% 0 in 0.00 W/m2
21:34 18 °F 15 °F 30.55 in NNE 3.5 mph 2.3 mph 88% 0 in 0.00 W/m2
21:39 17.9 °F 14.9 °F 30.55 in NNE 3.5 mph 2.1 mph 88% 0 in 0.00 W/m2
21:44 17.7 °F 14.8 °F 30.55 in NNE 3.5 mph 2 mph 88% 0 in 0.00 W/m2
21:49 17.6 °F 14.7 °F 30.55 in NNE 3.5 mph 2.5 mph 88% 0 in 0.00 W/m2
21:54 17.5 °F 14.6 °F 30.54 in NNE 3.5 mph 2.1 mph 88% 0 in 0.00 W/m2
21:59 17.3 °F 14.4 °F 30.54 in NNE 3.5 mph 2.1 mph 88% 0 in 0.00 W/m2
22:04 17.2 °F 14.3 °F 30.54 in NNE 3.5 mph 2.6 mph 88% 0 in 0.00 W/m2
22:09 17 °F 14.1 °F 30.54 in NNE 3.5 mph 2.1 mph 88% 0 in 0.00 W/m2
22:14 16.7 °F 13.8 °F 30.54 in NNE 3.5 mph 2 mph 88% 0 in 0.00 W/m2
22:19 16.5 °F 13.6 °F 30.54 in NNE 2.3 mph 1.8 mph 88% 0 in 0.00 W/m2
22:24 16.4 °F 13.7 °F 30.54 in NNE 3.5 mph 2 mph 89% 0 in 0.00 W/m2
22:29 16.3 °F 13.6 °F 30.54 in NNE 3.5 mph 2.1 mph 89% 0 in 0.00 W/m2
22:34 16.3 °F 13.6 °F 30.53 in NNE 3.5 mph 2.1 mph 89% 0 in 0.00 W/m2
22:39 16.2 °F 13.5 °F 30.53 in NNE 2.3 mph 1.5 mph 89% 0 in 0.00 W/m2
22:44 16.1 °F 13.4 °F 30.53 in NNE 3.5 mph 1.8 mph 89% 0 in 0.00 W/m2
22:49 16.1 °F 13.4 °F 30.53 in NNE 3.5 mph 1.7 mph 89% 0 in 0.00 W/m2
22:54 16.1 °F 13.4 °F 30.53 in NNE 2.3 mph 0.6 mph 89% 0 in 0.00 W/m2
22:59 16.1 °F 13.4 °F 30.53 in NNE 1.2 mph 0.3 mph 89% 0 in 0.00 W/m2
23:04 16.1 °F 13.4 °F 30.53 in NNE 2.3 mph 1.1 mph 89% 0 in 0.00 W/m2
23:09 16.1 °F 13.4 °F 30.53 in NNE 2.3 mph 1.3 mph 89% 0 in 0.00 W/m2
23:14 16 °F 13.3 °F 30.52 in NNE 2.3 mph 1.4 mph 89% 0 in 0.00 W/m2
23:19 16.1 °F 13.7 °F 30.52 in NNE 3.5 mph 1.5 mph 90% 0 in 0.00 W/m2
23:24 16.1 °F 13.4 °F 30.52 in NNE 3.5 mph 1.9 mph 89% 0 in 0.00 W/m2
23:29 16.1 °F 13.7 °F 30.52 in NNE 3.5 mph 2.4 mph 90% 0 in 0.00 W/m2
23:34 15.9 °F 13.2 °F 30.51 in North 3.5 mph 2.5 mph 89% 0 in 0.00 W/m2
23:39 15.9 °F 13.5 °F 30.51 in North 3.5 mph 2.6 mph 90% 0 in 0.00 W/m2
23:44 15.9 °F 13.5 °F 30.51 in North 3.5 mph 3.4 mph 90% 0 in 0.00 W/m2
23:49 15.8 °F 13.4 °F 30.51 in North 3.5 mph 2.7 mph 90% 0 in 0.00 W/m2
23:54 15.7 °F 13.3 °F 30.50 in North 3.5 mph 3 mph 90% 0 in 0.00 W/m2
23:59 15.6 °F 13.2 °F 30.50 in NNW 4.6 mph 3.1 mph 90% 0 in 0.00 W/m2
Bourbonnais, Illinois, USA
Compliments of Weather Underground - 2 mb